Time;durP1;ratioP1;P1;durP2;ratioP2;P2;SDS_P1;SDS_P2;PMS_P1;PMS_P2;Temp;Humidity;BMP_temperature;BMP_pressure;BME280_temperature;BME280_humidity;BME280_pressure;Samples;Min_cycle;Max_cycle;Signal;HPM_P1;HPM_P2
2023/07/25 00:00:35;;;;;;;8.07;6.88;;;;;;;23.56;100.00;101028.59;5053328;28;20043;-76
2023/07/25 00:03:00;;;;;;;7.47;6.78;;;;;;;23.52;100.00;101030.56;5034987;28;20017;-76
2023/07/25 00:05:26;;;;;;;8.20;7.00;;;;;;;23.56;100.00;101070.97;5052994;28;20021;-77
2023/07/25 00:07:51;;;;;;;8.23;7.03;;;;;;;23.48;100.00;101113.94;5053092;28;20032;-76
2023/07/25 00:10:18;;;;;;;9.57;7.15;;;;;;;23.60;100.00;101155.56;5052879;28;20039;-76
2023/07/25 00:12:44;;;;;;;8.20;7.38;;;;;;;23.76;100.00;101195.22;5052807;28;20060;-77
2023/07/25 00:15:10;;;;;;;8.93;7.05;;;;;;;23.90;100.00;101151.03;5034963;28;20463;-77
2023/07/25 00:20:57;;;;;;;10.05;6.82;;;;;;;23.73;100.00;101146.06;5052818;28;20051;-75
2023/07/25 00:23:23;;;;;;;11.05;6.95;;;;;;;23.59;100.00;101146.09;5052411;28;20033;-74
2023/07/25 00:25:48;;;;;;;8.38;6.93;;;;;;;23.74;100.00;101235.22;5052628;28;20112;-76
2023/07/25 00:28:14;;;;;;;8.40;7.15;;;;;;;23.27;100.00;101204.38;5052470;28;20021;-75
2023/07/25 00:34:01;;;;;;;7.88;6.97;;;;;;;23.62;100.00;101234.22;5053377;28;20036;-76
2023/07/25 00:36:26;;;;;;;8.60;6.80;;;;;;;23.37;100.00;101266.97;5052768;28;20383;-76
2023/07/25 00:38:53;;;;;;;8.18;7.22;;;;;;;23.15;100.00;101289.00;5052612;28;20029;-76
2023/07/25 00:44:53;;;;;;;8.73;6.97;;;;;;;23.20;100.00;101297.34;5052952;28;20048;-76
2023/07/25 00:47:22;;;;;;;10.02;7.47;;;;;;;23.33;100.00;101344.22;5067518;28;20029;-76
2023/07/25 00:49:48;;;;;;;8.82;7.80;;;;;;;23.19;100.00;101357.13;5052617;28;20075;-76
2023/07/25 00:52:14;;;;;;;9.80;7.57;;;;;;;23.18;100.00;101384.84;5034774;28;20460;-76
2023/07/25 00:54:47;;;;;;;8.35;7.40;;;;;;;23.36;100.00;101413.28;5052543;28;20029;-76
2023/07/25 00:57:13;;;;;;;8.40;7.30;;;;;;;23.51;100.00;101434.00;5034309;28;20094;-77
2023/07/25 01:02:59;;;;;;;8.57;7.67;;;;;;;22.72;100.00;101335.66;5052874;28;20539;-76
2023/07/25 01:05:28;;;;;;;9.63;8.18;;;;;;;22.71;100.00;101350.38;5068109;28;20275;-76
2023/07/25 01:07:55;;;;;;;9.40;7.50;;;;;;;23.05;100.00;101393.41;5052251;28;20115;-75
2023/07/25 01:10:20;;;;;;;8.98;7.70;;;;;;;23.25;100.00;101451.03;5053974;28;20033;-75
2023/07/25 01:12:46;;;;;;;11.98;8.40;;;;;;;22.86;100.00;101395.34;5056018;28;20131;-75
2023/07/25 01:15:11;;;;;;;8.75;7.88;;;;;;;22.73;100.00;101394.38;5055967;28;20025;-75
2023/07/25 01:17:37;;;;;;;8.48;7.63;;;;;;;22.92;100.00;101426.16;5055586;28;20170;-76
2023/07/25 01:20:03;;;;;;;9.52;8.40;;;;;;;22.65;100.00;101386.19;5055332;28;20025;-76
2023/07/25 01:25:50;;;;;;;;;;;;;;;22.88;100.00;101459.22;5056665;28;20052;-76
2023/07/25 01:28:15;;;;;;;10.57;8.67;;;;;;;22.33;100.00;101404.31;5055631;28;19936;-75
2023/07/25 01:30:41;;;;;;;10.07;8.15;;;;;;;22.85;100.00;101476.72;5055640;28;20287;-77
2023/07/25 01:33:06;;;;;;;11.95;8.27;;;;;;;23.01;100.00;101478.41;5055642;28;20025;-76
2023/07/25 01:38:53;;;;;;;10.05;8.07;;;;;;;22.73;100.00;101443.66;5055921;28;20067;-76
2023/07/25 01:41:18;;;;;;;11.98;8.50;;;;;;;22.78;100.00;101529.88;5055457;28;20112;-75
2023/07/25 01:43:44;;;;;;;11.05;8.50;;;;;;;22.97;100.00;101522.75;5037847;28;20128;-76
2023/07/25 01:46:09;;;;;;;11.32;8.65;;;;;;;22.68;100.00;101533.88;5055597;28;20048;-76
2023/07/25 01:48:34;;;;;;;11.82;8.88;;;;;;;22.39;100.00;101483.50;5055432;28;20021;-76
2023/07/25 01:51:00;;;;;;;11.05;9.07;;;;;;;22.53;100.00;101513.88;5054753;28;20136;-76
2023/07/25 01:53:25;;;;;;;12.18;9.20;;;;;;;22.06;100.00;101488.69;5037265;28;20029;-76
2023/07/25 01:59:12;;;;;;;9.50;7.97;;;;;;;22.67;100.00;101495.88;5055561;28;20071;-76
2023/07/25 02:01:38;;;;;;;9.70;8.45;;;;;;;22.66;100.00;101508.00;5055089;28;20039;-78
2023/07/25 02:04:03;;;;;;;13.45;8.38;;;;;;;22.88;100.00;101544.00;5055203;28;20390;-76
2023/07/25 02:06:29;;;;;;;9.98;8.60;;;;;;;22.53;100.00;101548.44;5055375;28;20028;-77
2023/07/25 02:12:16;;;;;;;12.18;9.30;;;;;;;22.47;100.00;101545.31;5054882;28;20040;-76
2023/07/25 02:14:41;;;;;;;12.98;8.93;;;;;;;22.46;100.00;101556.63;5055033;28;20025;-75
2023/07/25 02:17:07;;;;;;;10.45;9.38;;;;;;;22.25;100.00;101514.50;5037072;28;20025;-76
2023/07/25 02:19:32;;;;;;;9.65;8.65;;;;;;;22.72;100.00;101549.16;5054637;28;20372;-77
2023/07/25 02:21:57;;;;;;;10.23;8.82;;;;;;;22.49;100.00;101525.34;5054695;28;20029;-74
2023/07/25 02:24:23;;;;;;;12.10;8.73;;;;;;;22.77;100.00;101585.25;5054636;28;20059;-76
2023/07/25 02:26:48;;;;;;;10.15;8.32;;;;;;;22.44;100.00;101526.41;5054838;28;20037;-75
2023/07/25 02:29:13;;;;;;;9.38;8.38;;;;;;;22.80;100.00;101572.13;5054893;28;20031;-78
2023/07/25 02:31:39;;;;;;;9.18;8.27;;;;;;;22.89;100.00;101563.84;5054512;28;20025;-76
2023/07/25 02:34:04;;;;;;;10.82;8.50;;;;;;;22.80;100.00;101556.56;5040323;28;20028;-76
2023/07/25 02:36:30;;;;;;;12.23;9.38;;;;;;;22.16;100.00;101510.63;5067531;28;20028;-76
2023/07/25 02:38:55;;;;;;;11.95;8.65;;;;;;;22.41;100.00;101549.91;5060745;28;20024;-76
2023/07/25 02:41:20;;;;;;;12.40;9.05;;;;;;;22.35;100.00;101526.91;5054534;28;20032;-75
2023/07/25 02:43:46;;;;;;;11.75;9.13;;;;;;;22.01;100.00;101469.09;5070890;28;20055;-77
2023/07/25 02:46:11;;;;;;;10.35;9.10;;;;;;;22.35;100.00;101542.47;5054275;28;20108;-75
2023/07/25 02:48:37;;;;;;;9.48;8.57;;;;;;;22.50;100.00;101524.44;5054007;28;20048;-74
2023/07/25 02:51:02;;;;;;;11.23;8.95;;;;;;;22.34;100.00;101514.84;5053666;28;20491;-74
2023/07/25 02:53:27;;;;;;;11.63;9.95;;;;;;;22.35;100.00;101544.19;5053982;28;20021;-76
2023/07/25 02:55:54;;;;;;;11.00;8.77;;;;;;;22.76;100.00;101557.66;5053308;28;20031;-76
2023/07/25 02:58:19;;;;;;;11.15;9.00;;;;;;;22.60;100.00;101523.88;5035389;28;20471;-73
2023/07/25 03:00:45;;;;;;;12.95;9.77;;;;;;;22.43;100.00;101552.41;5052738;28;20059;-72
2023/07/25 03:06:32;;;;;;;10.95;9.82;;;;;;;21.97;100.00;101506.44;5054019;28;20090;-75
2023/07/25 03:08:57;;;;;;;13.00;9.85;;;;;;;22.02;100.00;101510.50;5068700;28;20025;-75
2023/07/25 03:11:23;;;;;;;12.23;10.20;;;;;;;21.86;100.00;101519.94;5068381;28;20116;-72
2023/07/25 03:13:48;;;;;;;11.27;9.88;;;;;;;22.06;100.00;101557.81;5035255;28;20037;-73
2023/07/25 03:16:13;;;;;;;12.48;10.05;;;;;;;22.14;100.00;101553.94;5053421;28;20112;-73
2023/07/25 03:18:39;;;;;;;15.23;10.00;;;;;;;22.01;100.00;101539.91;5052814;28;20027;-74
2023/07/25 03:21:04;;;;;;;11.95;9.98;;;;;;;21.68;100.00;101484.56;5053260;28;20051;-75
2023/07/25 03:23:29;;;;;;;13.25;10.43;;;;;;;22.02;100.00;101532.97;5053089;28;20083;-73
2023/07/25 03:25:55;;;;;;;11.40;10.05;;;;;;;22.21;100.00;101580.34;5052484;28;20021;-73
2023/07/25 03:28:20;;;;;;;12.27;10.95;;;;;;;21.97;100.00;101585.00;5053008;28;20028;-75
2023/07/25 03:34:07;;;;;;;14.68;11.63;;;;;;;22.36;100.00;101583.00;5052882;28;20035;-74
2023/07/25 03:36:33;;;;;;;14.18;10.45;;;;;;;22.31;100.00;101595.38;5052212;28;20461;-74
2023/07/25 03:38:58;;;;;;;11.60;10.50;;;;;;;22.46;100.00;101595.50;5034796;28;20025;-74
2023/07/25 03:41:23;;;;;;;12.80;10.60;;;;;;;22.68;100.00;101583.16;5052803;28;20025;-73
2023/07/25 03:47:35;;;;;;;15.57;10.73;;;;;;;22.50;100.00;101563.31;5052799;28;20075;-77
2023/07/25 03:53:29;;;;;;;14.18;9.85;;;;;;;22.23;100.00;101519.75;5051758;28;20052;-73
2023/07/25 03:55:55;;;;;;;14.50;10.80;;;;;;;22.68;100.00;101555.44;5052602;28;20029;-75
2023/07/25 03:58:20;;;;;;;11.80;10.52;;;;;;;22.92;100.00;101546.34;5053030;28;20075;-75
2023/07/25 04:00:46;;;;;;;12.68;9.25;;;;;;;23.82;100.00;101565.56;5034779;28;20029;-76
2023/07/25 04:03:11;;;;;;;11.27;10.07;;;;;;;23.01;100.00;101552.81;5068399;28;20382;-74
2023/07/25 04:08:58;;;;;;;12.88;10.32;;;;;;;22.94;100.00;101535.88;5052990;28;20040;-76
2023/07/25 04:11:23;;;;;;;12.93;10.52;;;;;;;22.52;100.00;101484.56;5052133;28;20033;-75
2023/07/25 04:13:49;;;;;;;12.95;10.50;;;;;;;22.81;100.00;101499.41;5035025;28;20052;-77
2023/07/25 04:16:14;;;;;;;12.85;10.93;;;;;;;23.10;100.00;101550.53;5052854;28;20529;-77
2023/07/25 04:22:01;;;;;;;14.82;11.48;;;;;;;23.12;100.00;101509.78;5052960;28;20043;-74
2023/07/25 04:24:27;;;;;;;15.75;11.32;;;;;;;23.09;100.00;101517.75;5051648;28;20025;-76
2023/07/25 04:26:52;;;;;;;16.90;11.40;;;;;;;23.12;100.00;101509.78;5052262;28;20071;-75
2023/07/25 04:29:18;;;;;;;16.30;11.55;;;;;;;23.33;100.00;101487.00;5034596;28;20091;-74
2023/07/25 04:35:05;;;;;;;21.88;11.45;;;;;;;23.69;100.00;101512.66;5052764;28;20040;-74
2023/07/25 04:37:30;;;;;;;16.90;11.40;;;;;;;23.52;100.00;101492.81;5052396;28;20021;-74
2023/07/25 04:39:56;;;;;;;15.93;11.60;;;;;;;23.62;100.00;101483.56;5052420;28;20111;-75
2023/07/25 04:42:21;;;;;;;17.35;11.05;;;;;;;23.54;100.00;101425.19;5052722;28;20028;-73
2023/07/25 04:48:08;;;;;;;19.20;10.95;;;;;;;23.89;100.00;101455.13;5056049;28;20040;-74
2023/07/25 04:50:34;;;;;;;16.27;11.43;;;;;;;24.28;100.00;101459.75;5055889;28;20024;-71
2023/07/25 04:52:59;;;;;;;12.13;10.90;;;;;;;24.14;100.00;101455.38;5055240;28;20391;-72
2023/07/25 04:55:25;;;;;;;13.10;11.07;;;;;;;24.18;100.00;101448.22;5055027;28;20017;-75
2023/07/25 05:01:12;;;;;;;15.43;10.38;;;;;;;24.31;100.00;101425.72;5055648;28;20071;-72
2023/07/25 05:03:37;;;;;;;13.80;11.00;;;;;;;24.16;100.00;101380.72;5037219;28;20111;-73
2023/07/25 05:06:03;;;;;;;12.63;10.68;;;;;;;24.58;100.00;101385.81;5055697;28;20020;-73
2023/07/25 05:08:28;;;;;;;15.55;12.13;;;;;;;24.55;100.00;101416.41;5055439;28;20028;-74
2023/07/25 05:10:54;;;;;;;14.60;10.80;;;;;;;24.48;100.00;101345.72;5055174;28;20032;-74
2023/07/25 05:13:20;;;;;;;15.98;10.50;;;;;;;24.90;100.00;101355.16;5055737;28;20380;-74
2023/07/25 05:15:45;;;;;;;13.98;10.75;;;;;;;24.66;100.00;101309.91;5055420;28;20081;-74
2023/07/25 05:21:32;;;;;;;12.88;10.07;;;;;;;25.45;100.00;101292.47;5055614;28;20096;-74
2023/07/25 05:23:58;;;;;;;14.35;9.65;;;;;;;25.32;100.00;101289.81;5054861;28;20029;-73
2023/07/25 05:29:45;;;;;;;12.80;10.55;;;;;;;25.52;100.00;101189.47;5055457;28;20410;-74
2023/07/25 05:32:10;;;;;;;11.85;10.30;;;;;;;25.16;100.00;101137.31;5054693;28;20032;-73
2023/07/25 05:34:37;;;;;;;19.80;12.80;;;;;;;25.99;100.00;101180.88;5070557;28;20025;-74
2023/07/25 05:40:24;;;;;;;18.77;10.30;;;;;;;25.61;100.00;101069.78;5055124;28;20063;-73
2023/07/25 05:46:10;;;;;;;11.65;9.45;;;;;;;25.74;100.00;100940.28;5054964;28;20510;-73
2023/07/25 05:48:36;;;;;;;14.93;9.73;;;;;;;26.00;100.00;100955.69;5054383;28;20020;-74
2023/07/25 05:51:01;;;;;;;13.15;9.38;;;;;;;25.67;100.00;100847.84;5054892;28;20116;-73
2023/07/25 05:53:27;;;;;;;10.63;9.52;;;;;;;26.15;100.00;100855.44;5055372;28;20368;-73
2023/07/25 05:59:14;;;;;;;16.45;9.60;;;;;;;26.69;100.00;100772.75;5070151;28;20131;-74
2023/07/25 06:01:39;;;;;;;13.63;9.88;;;;;;;27.36;100.00;100800.19;5043375;28;20575;-74
2023/07/25 06:04:05;;;;;;;11.05;9.05;;;;;;;26.76;100.00;100713.91;5054298;28;20036;-74
2023/07/25 06:09:52;;;;;;;14.35;9.73;;;;;;;27.18;100.00;100633.72;5054616;28;20040;-74
2023/07/25 06:12:18;;;;;;;12.55;8.63;;;;;;;27.43;100.00;100641.13;5053951;28;20391;-74
2023/07/25 06:14:43;;;;;;;14.00;9.05;;;;;;;28.08;100.00;100601.28;5054159;28;20471;-74
2023/07/25 06:20:34;;;;;;;15.55;9.55;;;;;;;27.38;100.00;100518.72;5053974;28;20039;-74
2023/07/25 06:26:21;;;;;;;13.85;8.98;;;;;;;28.19;100.00;100334.28;5053935;28;20032;-74
2023/07/25 06:28:46;;;;;;;15.13;9.77;;;;;;;28.53;100.00;100385.06;5053568;28;20017;-75
2023/07/25 06:31:12;;;;;;;9.57;8.20;;;;;;;28.16;100.00;100360.75;5053626;28;20451;-75
2023/07/25 06:33:37;;;;;;;11.07;8.75;;;;;;;28.23;100.00;100306.88;5053829;28;20017;-74
2023/07/25 06:36:03;;;;;;;12.73;9.63;;;;;;;28.05;100.00;100327.75;5053811;28;20024;-74
2023/07/25 06:38:28;;;;;;;13.95;9.15;;;;;;;28.26;100.00;100320.50;5053528;28;20430;-74
2023/07/25 06:40:53;;;;;;;12.00;8.88;;;;;;;28.34;100.00;100304.06;5053923;28;20474;-75
2023/07/25 06:43:19;;;;;;;13.30;8.63;;;;;;;29.25;100.00;100298.50;5053363;28;20115;-74
2023/07/25 06:45:44;;;;;;;13.73;8.60;;;;;;;28.89;100.00;100275.94;5069067;28;20025;-74
2023/07/25 06:48:10;;;;;;;12.52;9.60;;;;;;;28.87;100.00;100162.66;5053728;28;20029;-74
2023/07/25 06:50:35;;;;;;;14.48;9.65;;;;;;;28.34;100.00;100191.56;5068599;28;20175;-75
2023/07/25 06:53:01;;;;;;;14.13;9.43;;;;;;;28.94;100.00;100198.56;5053228;28;20048;-74
2023/07/25 06:55:26;;;;;;;10.60;8.82;;;;;;;29.36;100.00;100302.63;5053148;28;20051;-75
2023/07/25 06:57:51;;;;;;;14.88;9.57;;;;;;;28.83;100.00;100350.69;5034918;28;20029;-74
2023/07/25 07:00:18;;;;;;;13.75;9.07;;;;;;;29.81;100.00;100518.31;5052885;28;20082;-75
2023/07/25 07:02:44;;;;;;;12.45;8.75;;;;;;;29.76;100.00;100785.44;5053304;28;20120;-74
2023/07/25 07:05:09;;;;;;;13.95;9.43;;;;;;;29.56;100.00;100956.91;5052868;28;20388;-74
2023/07/25 07:10:56;;;;;;;;;;;;;;;29.65;100.00;101295.19;5053516;28;20040;-74
2023/07/25 07:13:22;;;;;;;11.93;8.60;;;;;;;30.14;100.00;101793.16;5052747;28;19909;-72
2023/07/25 07:15:48;;;;;;;14.23;9.23;;;;;;;29.77;100.00;101784.75;5052938;28;20037;-72
2023/07/25 07:18:14;;;;;;;12.88;8.40;;;;;;;29.80;100.00;101732.06;5053232;28;20470;-72
2023/07/25 07:20:39;;;;;;;9.18;8.25;;;;;;;30.67;100.00;101687.16;5051960;28;20094;-72
2023/07/25 07:23:05;;;;;;;11.80;8.63;;;;;;;29.90;100.00;101498.59;5034813;28;20032;-72
2023/07/25 07:25:30;;;;;;;12.45;8.18;;;;;;;30.00;100.00;101171.47;5052849;28;20036;-73
2023/07/25 07:27:56;;;;;;;9.20;8.30;;;;;;;30.05;100.00;100922.56;5052700;28;20025;-72
2023/07/25 07:30:21;;;;;;;13.63;8.43;;;;;;;30.44;100.00;100868.94;5052255;28;20395;-72
2023/07/25 07:32:47;;;;;;;9.70;8.70;;;;;;;30.79;100.00;100811.13;5052605;28;20017;-72
2023/07/25 07:35:12;;;;;;;9.25;8.07;;;;;;;30.20;100.00;100884.38;5052389;28;20395;-72
2023/07/25 07:37:38;;;;;;;10.93;7.97;;;;;;;30.04;100.00;100697.88;5052656;28;20418;-72
2023/07/25 07:40:04;;;;;;;10.48;8.73;;;;;;;30.84;100.00;100702.16;5052554;28;20037;-73
2023/07/25 07:42:29;;;;;;;9.38;8.13;;;;;;;30.83;100.00;100632.16;5051699;28;20058;-73
2023/07/25 07:44:55;;;;;;;12.68;8.32;;;;;;;31.36;100.00;100052.50;5051890;28;20515;-73
2023/07/25 07:47:20;;;;;;;12.95;8.35;;;;;;;30.92;100.00;99623.22;5051985;28;20036;-73
2023/07/25 07:49:46;;;;;;;12.80;8.55;;;;;;;31.05;100.00;99513.06;5052385;28;20029;-73
2023/07/25 07:55:47;;;;;;;9.73;8.73;;;;;;;30.97;100.00;99153.28;5051339;28;20410;-73
2023/07/25 07:58:12;;;;;;;10.80;8.73;;;;;;;31.72;100.00;99229.50;5052424;28;20483;-73
2023/07/25 08:00:37;;;;;;;12.32;8.73;;;;;;;31.32;100.00;99285.47;5052269;28;20028;-73
2023/07/25 08:03:03;;;;;;;12.98;8.90;;;;;;;31.81;100.00;99225.72;5051779;28;20036;-73
2023/07/25 08:05:28;;;;;;;13.43;9.07;;;;;;;30.91;100.00;99321.34;5052059;28;20025;-73
2023/07/25 08:07:54;;;;;;;12.10;8.90;;;;;;;31.43;100.00;99363.84;5067655;28;20534;-73
2023/07/25 08:10:19;;;;;;;13.15;8.65;;;;;;;31.41;100.00;99532.28;5052042;28;20036;-73
2023/07/25 08:12:44;;;;;;;10.80;8.50;;;;;;;31.35;100.00;99605.78;5052815;28;20024;-73
2023/07/25 08:15:10;;;;;;;12.05;8.07;;;;;;;31.94;100.00;99627.50;5068514;28;20422;-75
2023/07/25 08:20:59;;;;;;;10.80;8.43;;;;;;;32.23;100.00;99746.63;5056436;28;20082;-73
2023/07/25 08:23:25;;;;;;;10.57;8.50;;;;;;;31.75;100.00;99791.19;5037800;28;20021;-73
2023/07/25 08:25:51;;;;;;;9.85;8.85;;;;;;;32.68;100.00;99865.81;5055953;28;20025;-74
2023/07/25 08:28:17;;;;;;;12.60;9.05;;;;;;;30.84;100.00;99864.16;5055767;28;20035;-73
2023/07/25 08:30:43;;;;;;;12.07;8.55;;;;;;;31.96;100.00;99933.34;5055958;28;20025;-73
2023/07/25 08:33:09;;;;;;;11.40;8.88;;;;;;;31.84;100.00;99955.81;5038178;28;20515;-73
2023/07/25 08:35:34;;;;;;;12.15;9.55;;;;;;;32.42;100.00;100113.88;5056041;28;20061;-73
2023/07/25 08:38:00;;;;;;;10.60;9.50;;;;;;;33.16;100.00;100298.28;5055530;28;20463;-74
2023/07/25 08:40:26;;;;;;;11.23;9.30;;;;;;;32.14;100.00;100274.22;5055890;28;20024;-73
2023/07/25 08:42:55;;;;;;;13.75;8.77;;;;;;;32.81;100.00;100182.16;5055106;28;20083;-73
2023/07/25 08:48:42;;;;;;;11.07;9.05;;;;;;;32.96;100.00;100109.19;5055852;28;20087;-73
2023/07/25 08:51:21;;;;;;;11.15;9.23;;;;;;;32.98;100.00;100188.94;5055501;28;20025;-73
2023/07/25 08:54:02;;;;;;;12.13;9.32;;;;;;;33.24;100.00;99959.84;5055996;28;20035;-73
2023/07/25 08:56:28;;;;;;;;;;;;;;;32.99;100.00;99909.34;5056167;28;20458;-73
2023/07/25 08:58:54;;;;;;;13.02;10.00;;;;;;;33.03;100.00;99838.59;5055107;28;19909;-73
2023/07/25 09:01:21;;;;;;;15.80;11.65;;;;;;;32.93;100.00;99867.06;5055062;28;20025;-73
2023/07/25 09:03:47;;;;;;;15.68;10.80;;;;;;;32.79;100.00;99845.06;5055394;28;20047;-73
2023/07/25 09:06:13;;;;;;;12.48;10.73;;;;;;;32.49;100.00;99763.72;5055484;28;20543;-74
2023/07/25 09:08:39;;;;;;;14.70;10.43;;;;;;;32.91;100.00;99784.75;5055408;28;20021;-74
2023/07/25 09:11:06;;;;;;;11.75;10.32;;;;;;;32.60;100.00;99632.34;5037134;28;20109;-73
2023/07/25 09:13:32;;;;;;;15.27;11.13;;;;;;;32.14;100.00;99576.69;5055440;28;20032;-73
2023/07/25 09:15:57;;;;;;;14.55;10.98;;;;;;;33.74;100.00;99636.94;5055782;28;20025;-73
2023/07/25 09:18:23;;;;;;;15.88;11.00;;;;;;;33.86;100.00;99744.38;5055226;28;20478;-72
2023/07/25 09:20:49;;;;;;;11.93;10.73;;;;;;;33.82;100.00;99732.59;5055427;28;20036;-75
2023/07/25 09:23:20;;;;;;;13.18;10.80;;;;;;;33.66;100.00;99674.88;5055858;28;20025;-73
2023/07/25 09:29:07;;;;;;;12.45;10.68;;;;;;;33.67;100.00;99671.25;5055075;28;20040;-73
2023/07/25 09:31:46;;;;;;;17.80;10.88;;;;;;;33.79;100.00;99663.56;5053892;28;20028;-74
2023/07/25 09:34:23;;;;;;;13.55;10.85;;;;;;;33.67;100.00;99555.16;5055395;28;20028;-75
2023/07/25 09:40:11;;;;;;;19.27;11.45;;;;;;;34.09;100.00;99464.22;5055154;28;20074;-73
2023/07/25 09:42:41;;;;;;;12.68;10.80;;;;;;;34.04;100.00;99516.81;5069639;28;20032;-74
2023/07/25 09:45:08;;;;;;;16.58;11.50;;;;;;;34.73;100.00;99541.66;5055007;28;20025;-75
2023/07/25 09:50:56;;;;;;;15.38;12.60;;;;;;;34.44;100.00;99742.09;5055056;28;20036;-73
2023/07/25 09:53:22;;;;;;;18.08;12.38;;;;;;;34.51;100.00;99820.34;5054317;28;20104;-73
2023/07/25 09:55:47;;;;;;;14.98;12.35;;;;;;;34.19;100.00;99815.78;5054952;28;20128;-74
2023/07/25 09:58:13;;;;;;;23.67;13.45;;;;;;;34.14;100.00;99897.44;5036778;28;20112;-75
2023/07/25 10:00:40;;;;;;;17.55;12.27;;;;;;;34.65;100.00;99948.88;5036532;28;20029;-69
2023/07/25 10:03:09;;;;;;;25.58;13.35;;;;;;;33.77;100.00;99916.28;5054288;28;20025;-72
2023/07/25 10:08:57;;;;;;;14.93;11.73;;;;;;;34.48;100.00;99981.94;5054247;28;20102;-70
2023/07/25 10:11:24;;;;;;;15.57;11.55;;;;;;;34.50;100.00;99969.34;5035414;28;20406;-71
2023/07/25 10:13:52;;;;;;;16.17;12.07;;;;;;;34.50;100.00;99961.44;5053996;28;20407;-71
2023/07/25 10:16:21;;;;;;;14.93;11.80;;;;;;;34.26;100.00;99947.84;5053773;28;20017;-71
2023/07/25 10:18:53;;;;;;;14.60;11.23;;;;;;;35.33;100.00;99990.13;5053949;28;20029;-73
2023/07/25 10:21:18;;;;;;;15.68;12.05;;;;;;;35.16;100.00;99943.91;5054046;28;20036;-74
2023/07/25 10:23:53;;;;;;;18.75;11.40;;;;;;;35.45;100.00;99962.09;5036509;28;20029;-74
2023/07/25 10:26:20;;;;;;;15.05;11.85;;;;;;;35.20;100.00;99931.91;5054286;28;20025;-74
2023/07/25 10:28:46;;;;;;;14.70;11.63;;;;;;;34.69;100.00;99957.19;5054405;28;20025;-74
2023/07/25 10:34:45;;;;;;;18.67;12.70;;;;;;;34.39;100.00;99938.16;5053978;28;20399;-71
2023/07/25 10:37:20;;;;;;;16.35;11.80;;;;;;;34.24;100.00;99941.97;5053108;28;20052;-72
2023/07/25 10:43:07;;;;;;;18.25;11.88;;;;;;;34.34;100.00;99886.94;5052611;28;20040;-72
2023/07/25 10:45:32;;;;;;;18.02;11.95;;;;;;;35.42;100.00;99928.03;5068339;28;20415;-72
2023/07/25 10:47:59;;;;;;;26.05;12.60;;;;;;;36.04;100.00;99864.03;5053244;28;20025;-73
2023/07/25 10:50:49;;;;;;;15.05;11.68;;;;;;;35.76;100.00;99913.78;5052273;28;20021;-73
2023/07/25 10:53:16;;;;;;;16.90;12.32;;;;;;;35.65;100.00;99882.66;5052944;28;20025;-73
2023/07/25 10:56:03;;;;;;;20.30;12.25;;;;;;;35.43;100.00;99900.59;5052836;28;20079;-74
2023/07/25 10:58:32;;;;;;;17.17;11.50;;;;;;;36.49;100.00;99891.38;5052887;28;20048;-73
2023/07/25 11:00:59;;;;;;;16.00;11.82;;;;;;;35.81;100.00;99845.16;5052937;28;20035;-74
2023/07/25 11:09:22;;;;;;;15.43;12.05;;;;;;;36.31;100.00;99815.19;5747521;23;20130;-74
2023/07/25 11:11:54;;;;;;;16.02;12.00;;;;;;;36.38;100.00;99857.56;4649334;28;10000149;-75
2023/07/25 11:14:26;;;;;;;16.05;11.48;;;;;;;35.87;100.00;99807.25;5012374;28;20065;-73
2023/07/25 11:16:53;;;;;;;17.35;12.27;;;;;;;37.21;100.00;99843.13;5013036;28;20087;-71
2023/07/25 11:19:25;;;;;;;13.80;10.90;;;;;;;37.16;100.00;99803.97;5012108;28;20491;-75
2023/07/25 11:21:56;;;;;;;14.43;12.02;;;;;;;36.71;100.00;99829.03;4992868;28;20023;-74
2023/07/25 11:24:24;;;;;;;14.18;11.85;;;;;;;37.18;100.00;99793.19;5008677;28;20495;-77
2023/07/25 11:26:49;;;;;;;19.42;11.52;;;;;;;36.89;100.00;99833.63;4992785;28;20038;-72
2023/07/25 11:29:17;;;;;;;14.32;11.20;;;;;;;37.06;100.00;99840.03;4978930;28;20081;-69
2023/07/25 11:31:48;;;;;;;13.10;10.70;;;;;;;37.07;100.00;99834.50;5000210;28;20038;-73
2023/07/25 11:34:16;;;;;;;14.63;10.82;;;;;;;35.95;100.00;99806.22;4992106;28;20045;-72
2023/07/25 11:36:42;;;;;;;13.95;11.50;;;;;;;36.33;100.00;99801.75;4974790;28;20041;-72
2023/07/25 11:39:09;;;;;;;15.70;11.27;;;;;;;36.64;100.00;99800.94;4992168;28;20526;-72
2023/07/25 11:41:39;;;;;;;13.07;10.13;;;;;;;36.12;100.00;99787.00;4992203;28;20026;-71
2023/07/25 11:44:13;;;;;;;14.27;10.98;;;;;;;35.84;100.00;99809.50;4974984;28;20061;-72
2023/07/25 11:46:42;;;;;;;14.63;10.38;;;;;;;36.44;100.00;99771.94;4974483;28;20058;-72
2023/07/25 11:49:09;;;;;;;12.10;10.80;;;;;;;36.09;100.00;99741.56;4974639;28;20538;-71
2023/07/25 11:51:36;;;;;;;16.10;11.10;;;;;;;36.82;100.00;99777.97;4974966;28;20034;-73
2023/07/25 11:54:02;;;;;;;19.60;10.52;;;;;;;36.24;100.00;99760.63;4974055;28;20496;-72
2023/07/25 11:56:28;;;;;;;16.15;10.90;;;;;;;36.38;100.00;99759.50;4974980;28;20026;-72
2023/07/25 11:58:53;;;;;;;17.38;10.93;;;;;;;37.04;100.00;99763.28;4992206;28;20023;-72
2023/07/25 12:01:26;;;;;;;14.52;10.07;;;;;;;36.67;100.00;99774.03;4974296;28;20027;-72
2023/07/25 12:03:51;;;;;;;15.77;11.32;;;;;;;36.97;100.00;99753.78;4992178;28;20022;-72
2023/07/25 12:06:26;;;;;;;13.60;10.50;;;;;;;37.38;100.00;99773.38;4991550;28;20037;-72
2023/07/25 12:08:51;;;;;;;14.77;10.38;;;;;;;37.75;100.00;99771.53;4991762;28;20034;-72
2023/07/25 12:11:17;;;;;;;15.27;10.73;;;;;;;37.38;100.00;99724.78;4974703;28;20401;-71
2023/07/25 12:13:50;;;;;;;14.93;10.68;;;;;;;37.01;100.00;99753.13;4992291;28;20026;-72
2023/07/25 12:16:35;;;;;;;13.90;10.77;;;;;;;37.55;100.00;99755.03;4992309;28;20027;-72
2023/07/25 12:19:20;;;;;;;15.23;11.13;;;;;;;37.14;100.00;99725.66;4991767;28;20039;-72
2023/07/25 12:21:46;;;;;;;13.10;10.65;;;;;;;37.47;100.00;99749.19;4974504;28;20478;-72
2023/07/25 12:24:14;;;;;;;13.98;9.90;;;;;;;37.12;100.00;99744.44;4974207;28;20105;-72
2023/07/25 12:26:51;;;;;;;13.98;10.52;;;;;;;37.28;100.00;99749.16;4992062;28;20117;-72
2023/07/25 12:29:21;;;;;;;14.02;10.27;;;;;;;37.77;100.00;99719.03;4992124;28;20034;-71
2023/07/25 12:31:47;;;;;;;15.52;10.13;;;;;;;37.43;100.00;99740.06;4991815;28;20077;-72
2023/07/25 12:34:18;;;;;;;19.77;10.43;;;;;;;37.45;100.00;99698.16;4974384;28;20088;-72
2023/07/25 12:36:44;;;;;;;14.85;10.65;;;;;;;37.72;100.00;99699.44;4991846;28;20042;-71
2023/07/25 12:39:09;;;;;;;14.15;9.73;;;;;;;37.86;100.00;99722.16;4991713;28;20408;-72
2023/07/25 12:41:34;;;;;;;17.85;9.77;;;;;;;37.08;100.00;99721.22;4991926;28;20217;-72
2023/07/25 12:44:02;;;;;;;14.23;9.23;;;;;;;37.92;100.00;99697.34;4992025;28;20030;-72
2023/07/25 12:46:27;;;;;;;15.15;9.95;;;;;;;38.13;100.00;99710.13;4991552;28;20460;-72
2023/07/25 12:48:53;;;;;;;16.67;9.85;;;;;;;38.04;100.00;99706.16;4974141;28;20026;-72
2023/07/25 12:51:18;;;;;;;21.50;10.98;;;;;;;38.26;100.00;99719.75;4991701;28;20038;-71
2023/07/25 12:53:44;;;;;;;16.83;10.10;;;;;;;38.04;100.00;99714.13;4991847;28;20054;-72
2023/07/25 12:56:09;;;;;;;17.40;10.13;;;;;;;38.34;100.00;99714.13;4990800;28;20037;-72
2023/07/25 12:58:35;;;;;;;16.48;9.48;;;;;;;37.43;100.00;99695.75;4991740;28;20117;-72
2023/07/25 13:01:00;;;;;;;16.98;9.98;;;;;;;37.54;100.00;99657.81;4991725;28;20062;-71
2023/07/25 13:03:27;;;;;;;14.85;9.90;;;;;;;38.02;100.00;99701.09;4991293;28;20532;-71
2023/07/25 13:05:53;;;;;;;14.20;9.35;;;;;;;38.34;100.00;99698.16;4992038;28;20510;-71
2023/07/25 13:08:19;;;;;;;13.93;9.43;;;;;;;37.66;100.00;99660.53;4995032;28;20030;-72
2023/07/25 13:10:46;;;;;;;19.10;9.65;;;;;;;38.15;100.00;99661.00;4977023;28;20065;-72
2023/07/25 13:13:12;;;;;;;18.23;10.57;;;;;;;38.44;100.00;99666.50;4993356;28;20061;-71